createdAt,value
2018-12-16T00:00:06.723Z,-2.32
2018-12-16T00:01:06.705Z,-2.34
2018-12-16T00:02:06.682Z,-2.43
2018-12-16T00:03:06.423Z,-2.42
2018-12-16T00:04:06.638Z,-2.37
2018-12-16T00:05:06.615Z,-2.36
2018-12-16T00:06:06.595Z,-2.34
2018-12-16T00:07:06.329Z,-2.24
2018-12-16T00:08:06.551Z,-2.34
2018-12-16T00:09:06.537Z,-2.4
2018-12-16T00:10:06.548Z,-2.37
2018-12-16T00:11:06.498Z,-2.43
2018-12-16T00:12:06.472Z,-2.42
2018-12-16T00:13:06.452Z,-2.37
2018-12-16T00:14:06.465Z,-2.36
2018-12-16T00:15:06.409Z,-2.42
2018-12-16T00:16:06.395Z,-2.34
2018-12-16T00:17:06.371Z,-2.23
2018-12-16T00:18:06.353Z,-2.34
2018-12-16T00:19:06.331Z,-2.32
2018-12-16T00:20:06.396Z,-2.34
2018-12-16T00:21:06.292Z,-2.36
2018-12-16T00:22:06.018Z,-2.37
2018-12-16T00:23:18.990Z,-2.36
2018-12-16T00:24:06.235Z,-2.43
2018-12-16T00:25:06.213Z,-2.34
2018-12-16T00:26:06.198Z,-2.5
2018-12-16T00:27:05.922Z,-2.39
2018-12-16T00:28:06.156Z,-2.27
2018-12-16T00:29:06.135Z,-2.37
2018-12-16T00:30:06.119Z,-2.4
2018-12-16T00:31:06.093Z,-2.39
2018-12-16T00:32:06.076Z,-2.37
2018-12-16T00:33:05.802Z,-2.4
2018-12-16T00:34:06.058Z,-2.46
2018-12-16T00:35:05.762Z,-2.49
2018-12-16T00:36:05.990Z,-2.36
2018-12-16T00:37:05.966Z,-2.36
2018-12-16T00:38:05.702Z,-2.36
2018-12-16T00:39:05.925Z,-2.42
2018-12-16T00:40:05.909Z,-2.32
2018-12-16T00:41:05.891Z,-2.34
2018-12-16T00:42:05.864Z,-2.37
2018-12-16T00:43:05.846Z,-2.37
2018-12-16T00:44:05.827Z,-2.36
2018-12-16T00:45:05.805Z,-2.43
2018-12-16T00:46:05.783Z,-2.3
2018-12-16T00:47:05.770Z,-2.3
2018-12-16T00:48:05.747Z,-2.39
2018-12-16T00:49:05.727Z,-2.39
2018-12-16T00:50:05.457Z,-2.47
2018-12-16T00:51:05.683Z,-2.37
2018-12-16T00:52:05.659Z,-2.43
2018-12-16T00:53:05.644Z,-2.37
2018-12-16T00:54:05.623Z,-2.39
2018-12-16T00:55:05.603Z,-2.43
2018-12-16T00:56:05.579Z,-2.4
2018-12-16T00:57:05.565Z,-2.4
2018-12-16T00:58:05.539Z,-2.37
2018-12-16T00:59:05.519Z,-2.39
2018-12-16T01:00:05.570Z,-2.39
2018-12-16T01:01:05.230Z,-2.39
2018-12-16T01:02:05.460Z,-2.53
2018-12-16T01:03:05.446Z,-2.5
2018-12-16T01:04:05.420Z,-2.39
2018-12-16T01:05:05.470Z,-2.39
2018-12-16T01:06:05.375Z,-2.53
2018-12-16T01:07:05.354Z,-2.37
2018-12-16T01:08:05.340Z,-2.43
2018-12-16T01:09:05.320Z,-2.37
2018-12-16T01:10:05.300Z,-2.37
2018-12-16T01:11:05.272Z,-2.39
2018-12-16T01:12:05.254Z,-2.37
2018-12-16T01:13:05.235Z,-2.36
2018-12-16T01:14:05.209Z,-2.32
2018-12-16T01:15:05.196Z,-2.34
2018-12-16T01:16:04.925Z,-2.43
2018-12-16T01:17:05.154Z,-2.36
2018-12-16T01:18:04.886Z,-2.34
2018-12-16T01:19:05.114Z,-2.42
2018-12-16T01:20:05.092Z,-2.36
2018-12-16T01:21:05.069Z,-2.36
2018-12-16T01:22:05.050Z,-2.37
2018-12-16T01:23:05.034Z,-2.53
2018-12-16T01:24:05.010Z,-2.39
2018-12-16T01:25:04.992Z,-2.44
2018-12-16T01:26:04.975Z,-2.4
2018-12-16T01:27:04.699Z,-2.36
2018-12-16T01:28:04.930Z,-2.4
2018-12-16T01:29:04.659Z,-2.37
2018-12-16T01:30:04.892Z,-2.42
2018-12-16T01:31:04.866Z,-2.37
2018-12-16T01:32:04.858Z,-2.32
2018-12-16T01:33:04.823Z,-2.34
2018-12-16T01:34:04.805Z,-2.37
2018-12-16T01:35:04.783Z,-2.36
2018-12-16T01:36:04.525Z,-2.36
2018-12-16T01:37:04.499Z,-2.37
2018-12-16T01:38:04.726Z,-2.4
2018-12-16T01:39:04.702Z,-2.39
2018-12-16T01:40:04.684Z,-2.49
2018-12-16T01:41:04.666Z,-2.37
2018-12-16T01:42:04.641Z,-2.4
2018-12-16T01:43:04.372Z,-2.4
2018-12-16T01:44:04.606Z,-2.39
2018-12-16T01:45:04.672Z,-2.34
2018-12-16T01:46:04.558Z,-2.32
2018-12-16T01:47:04.542Z,-2.46
2018-12-16T01:48:04.524Z,-2.4
2018-12-16T01:49:04.494Z,-2.37
2018-12-16T01:50:04.306Z,-2.34
2018-12-16T01:51:04.460Z,-2.37
2018-12-16T01:52:04.436Z,-2.36
2018-12-16T01:53:04.428Z,-2.44
2018-12-16T01:54:04.397Z,-2.39
2018-12-16T01:55:04.458Z,-2.43
2018-12-16T01:56:04.355Z,-2.28
2018-12-16T01:57:04.095Z,-2.39
2018-12-16T01:58:04.317Z,-2.37
2018-12-16T01:59:04.292Z,-2.39
2018-12-16T02:00:04.272Z,-2.43
2018-12-16T02:01:04.250Z,-2.44
2018-12-16T02:02:04.232Z,-2.43
2018-12-16T02:03:04.219Z,-2.42
2018-12-16T02:04:04.195Z,-2.42
2018-12-16T02:05:04.169Z,-2.4
2018-12-16T02:06:04.156Z,-2.36
2018-12-16T02:07:04.133Z,-2.39
2018-12-16T02:08:04.109Z,-2.42
2018-12-16T02:09:04.104Z,-2.36
2018-12-16T02:10:03.820Z,-2.39
2018-12-16T02:11:04.052Z,-2.36
2018-12-16T02:12:04.026Z,-2.4
2018-12-16T02:13:04.009Z,-2.4
2018-12-16T02:14:03.987Z,-2.4
2018-12-16T02:15:03.717Z,-2.36
2018-12-16T02:16:03.973Z,-2.37
2018-12-16T02:17:03.676Z,-2.3
2018-12-16T02:18:03.661Z,-2.32
2018-12-16T02:19:03.884Z,-2.42
2018-12-16T02:20:03.876Z,-2.34
2018-12-16T02:21:03.843Z,-2.37
2018-12-16T02:22:03.822Z,-2.34
2018-12-16T02:23:03.804Z,-2.32
2018-12-16T02:24:03.538Z,-2.39
2018-12-16T02:25:03.760Z,-2.4
2018-12-16T02:26:03.490Z,-2.39
2018-12-16T02:27:03.719Z,-2.37
2018-12-16T02:28:03.700Z,-2.4
2018-12-16T02:29:03.679Z,-2.34
2018-12-16T02:30:03.674Z,-2.4
2018-12-16T02:31:03.639Z,-2.4
2018-12-16T02:32:03.620Z,-2.39
2018-12-16T02:33:03.688Z,-2.37
2018-12-16T02:34:03.183Z,-2.37
2018-12-16T02:35:03.309Z,-2.39
2018-12-16T02:36:03.545Z,-2.42
2018-12-16T02:37:03.523Z,-2.36
2018-12-16T02:38:03.245Z,-2.4
2018-12-16T02:39:03.488Z,-2.39
2018-12-16T02:40:03.459Z,-2.43
2018-12-16T02:41:03.436Z,-2.34
2018-12-16T02:42:03.424Z,-2.39
2018-12-16T02:43:03.410Z,-2.36
2018-12-16T02:44:03.128Z,-2.34
2018-12-16T02:45:03.351Z,-2.39
2018-12-16T02:46:03.334Z,-2.42
2018-12-16T02:47:03.066Z,-2.42
2018-12-16T02:48:03.042Z,-2.34
2018-12-16T02:49:03.020Z,-2.36
2018-12-16T02:50:03.002Z,-2.4
2018-12-16T02:51:03.234Z,-2.36
2018-12-16T02:52:03.218Z,-2.36
2018-12-16T02:53:09.565Z,-2.34
2018-12-16T02:54:03.170Z,-2.4
2018-12-16T02:55:03.148Z,-2.43
2018-12-16T02:56:03.133Z,-2.37
2018-12-16T02:57:03.120Z,-2.49
2018-12-16T02:58:03.097Z,-2.49
2018-12-16T02:59:03.072Z,-2.47
2018-12-16T03:00:03.048Z,-2.4
2018-12-16T03:01:03.033Z,-2.53
2018-12-16T03:02:03.020Z,-2.44
2018-12-16T03:03:03.011Z,-2.47
2018-12-16T03:04:02.977Z,-2.44
2018-12-16T03:05:02.945Z,-2.49
2018-12-16T03:06:02.935Z,-2.5
2018-12-16T03:07:02.904Z,-2.44
2018-12-16T03:08:02.895Z,-2.5
2018-12-16T03:09:02.858Z,-2.49
2018-12-16T03:10:02.843Z,-2.44
2018-12-16T03:11:02.823Z,-2.43
2018-12-16T03:12:02.805Z,-2.49
2018-12-16T03:13:02.790Z,-2.46
2018-12-16T03:14:02.510Z,-2.44
2018-12-16T03:15:02.740Z,-2.5
2018-12-16T03:16:02.472Z,-2.46
2018-12-16T03:17:02.702Z,-2.6
2018-12-16T03:18:02.674Z,-2.67
2018-12-16T03:19:02.655Z,-2.55
2018-12-16T03:20:02.643Z,-2.62
2018-12-16T03:21:02.370Z,-2.67
2018-12-16T03:22:02.355Z,-2.54
2018-12-16T03:23:02.330Z,-2.65
2018-12-16T03:24:02.555Z,-2.61
2018-12-16T03:25:02.287Z,-2.62
2018-12-16T03:26:02.268Z,-2.62
2018-12-16T03:27:02.496Z,-2.7
2018-12-16T03:28:02.474Z,-2.62
2018-12-16T03:29:02.456Z,-2.65
2018-12-16T03:30:02.183Z,-2.7
2018-12-16T03:31:02.427Z,-2.68
2018-12-16T03:32:02.429Z,-2.78
2018-12-16T03:33:02.401Z,-2.83
2018-12-16T03:34:02.349Z,-2.82
2018-12-16T03:35:02.340Z,-2.79
2018-12-16T03:36:02.315Z,-2.76
2018-12-16T03:37:02.292Z,-2.85
2018-12-16T03:38:02.267Z,-2.88
2018-12-16T03:39:02.249Z,-2.86
2018-12-16T03:40:02.227Z,-2.9
2018-12-16T03:41:02.209Z,-2.85
2018-12-16T03:42:02.184Z,-2.9
2018-12-16T03:43:02.169Z,-2.93
2018-12-16T03:44:02.145Z,-3
2018-12-16T03:45:02.131Z,-2.99
2018-12-16T03:46:02.097Z,-3.06
2018-12-16T03:47:02.099Z,-3.09
2018-12-16T03:48:02.065Z,-3
2018-12-16T03:49:02.057Z,-3
2018-12-16T03:50:02.021Z,-3.11
2018-12-16T03:51:02.008Z,-3.11
2018-12-16T03:52:01.988Z,-3.18
2018-12-16T03:53:01.956Z,-3.14
2018-12-16T03:54:01.936Z,-3.07
2018-12-16T03:55:01.667Z,-3.15
2018-12-16T03:56:01.893Z,-3.06
2018-12-16T03:57:01.876Z,-3.11
2018-12-16T03:58:01.854Z,-3.04
2018-12-16T03:59:01.828Z,-3.11
2018-12-16T04:00:01.812Z,-3.11
2018-12-16T04:01:01.543Z,-3.09
2018-12-16T04:02:01.784Z,-3.14
2018-12-16T04:03:01.749Z,-3.18
2018-12-16T04:04:01.762Z,-3.22
2018-12-16T04:05:01.707Z,-3.12
2018-12-16T04:06:01.685Z,-3.15
2018-12-16T04:07:01.685Z,-3.19
2018-12-16T04:08:01.642Z,-3.24
2018-12-16T04:09:01.627Z,-3.29
2018-12-16T04:10:01.603Z,-3.32
2018-12-16T04:11:01.587Z,-3.36
2018-12-16T04:12:01.565Z,-3.43
2018-12-16T04:13:01.540Z,-3.43
2018-12-16T04:14:01.531Z,-3.45
2018-12-16T04:15:01.557Z,-3.5
2018-12-16T04:16:01.493Z,-3.53
2018-12-16T04:17:01.208Z,-3.57
2018-12-16T04:18:01.439Z,-3.57
2018-12-16T04:19:00.925Z,-3.69
2018-12-16T04:20:01.149Z,-3.79
2018-12-16T04:21:01.378Z,-3.76
2018-12-16T04:22:01.356Z,-3.83
2018-12-16T04:23:01.328Z,-3.93
2018-12-16T04:24:01.334Z,-4.01
2018-12-16T04:25:01.310Z,-3.94
2018-12-16T04:26:01.272Z,-4.05
2018-12-16T04:27:01.264Z,-4.14
2018-12-16T04:28:01.232Z,-4.06
2018-12-16T04:29:01.222Z,-4.23
2018-12-16T04:30:00.942Z,-4.26
2018-12-16T04:31:01.162Z,-4.27
2018-12-16T04:32:00.896Z,-4.36
2018-12-16T04:33:01.128Z,-4.36
2018-12-16T04:34:01.112Z,-4.48
2018-12-16T04:35:00.843Z,-4.5
2018-12-16T04:36:01.062Z,-4.48
2018-12-16T04:37:01.043Z,-4.59
2018-12-16T04:38:01.022Z,-4.54
2018-12-16T04:39:00.998Z,-4.63
2018-12-16T04:40:00.975Z,-4.65
2018-12-16T04:41:01.256Z,-4.59
2018-12-16T04:42:00.928Z,-4.65
2018-12-16T04:43:00.908Z,-4.68
2018-12-16T04:44:00.916Z,-4.68
2018-12-16T04:45:00.903Z,-4.71
2018-12-16T04:46:00.946Z,-4.72
2018-12-16T04:47:00.853Z,-4.69
2018-12-16T04:48:00.581Z,-4.75
2018-12-16T04:49:00.563Z,-4.75
2018-12-16T04:50:00.789Z,-4.62
2018-12-16T04:51:00.770Z,-4.55
2018-12-16T04:52:00.740Z,-4.62
2018-12-16T04:53:00.737Z,-4.66
2018-12-16T04:54:00.705Z,-4.65
2018-12-16T04:55:00.432Z,-4.61
2018-12-16T04:56:00.659Z,-4.57
2018-12-16T04:57:00.635Z,-4.53
2018-12-16T04:58:00.368Z,-4.51
2018-12-16T04:59:00.600Z,-4.51
2018-12-16T05:00:00.572Z,-4.41
2018-12-16T05:01:00.547Z,-4.43
2018-12-16T05:02:00.534Z,-4.39
2018-12-16T05:03:00.515Z,-4.27
2018-12-16T05:04:00.491Z,-4.27
2018-12-16T05:05:00.221Z,-4.29
2018-12-16T05:06:00.193Z,-4.23
2018-12-16T05:07:00.420Z,-4.26
2018-12-16T05:08:00.404Z,-4.29
2018-12-16T05:09:00.131Z,-4.29
2018-12-16T05:10:00.358Z,-4.23
2018-12-16T05:11:00.413Z,-4.29
2018-12-16T05:12:00.315Z,-4.27
2018-12-16T05:13:00.297Z,-4.25
2018-12-16T05:14:00.024Z,-4.15
2018-12-16T05:15:00.002Z,-4.15
2018-12-16T05:16:00.237Z,-4.25
2018-12-16T05:17:00.214Z,-4.29
2018-12-16T05:18:00.189Z,-4.22
2018-12-16T05:19:00.167Z,-4.15
2018-12-16T05:20:00.147Z,-4.32
2018-12-16T05:21:00.419Z,-4.25
2018-12-16T05:21:59.850Z,-4.25
2018-12-16T05:23:00.081Z,-4.14
2018-12-16T05:24:00.061Z,-4.25
2018-12-16T05:25:00.035Z,-4.18
2018-12-16T05:26:00.015Z,-4.16
2018-12-16T05:26:59.750Z,-4.22
2018-12-16T05:27:59.970Z,-4.11
2018-12-16T05:28:59.985Z,-4.23
2018-12-16T05:29:59.929Z,-4.15
2018-12-16T05:30:59.909Z,-4.15
2018-12-16T05:31:59.883Z,-4.11
2018-12-16T05:32:59.866Z,-4.23
2018-12-16T05:33:59.842Z,-4.26
2018-12-16T05:34:59.835Z,-4.11
2018-12-16T05:35:59.802Z,-4.19
2018-12-16T05:36:59.779Z,-4.11
2018-12-16T05:37:59.755Z,-4.23
2018-12-16T05:38:59.753Z,-4.23
2018-12-16T05:39:59.713Z,-4.12
2018-12-16T05:40:59.692Z,-4.18
2018-12-16T05:41:59.669Z,-4.25
2018-12-16T05:42:59.658Z,-4.15
2018-12-16T05:43:59.626Z,-4.18
2018-12-16T05:44:59.611Z,-4.22
2018-12-16T05:45:59.339Z,-4.15
2018-12-16T05:46:59.566Z,-4.29
2018-12-16T05:47:59.539Z,-4.29
2018-12-16T05:48:59.517Z,-4.29
2018-12-16T05:49:59.497Z,-4.22
2018-12-16T05:50:59.478Z,-4.25
2018-12-16T05:51:59.457Z,-4.32
2018-12-16T05:52:59.433Z,-4.19
2018-12-16T05:53:59.409Z,-4.29
2018-12-16T05:54:59.394Z,-4.25
2018-12-16T05:55:59.118Z,-4.3
2018-12-16T05:56:59.356Z,-4.23
2018-12-16T05:57:59.335Z,-4.27
2018-12-16T05:58:59.313Z,-4.23
2018-12-16T05:59:59.285Z,-4.25
2018-12-16T06:00:59.267Z,-4.3
2018-12-16T06:01:59.248Z,-4.34
2018-12-16T06:02:59.231Z,-4.29
2018-12-16T06:03:59.197Z,-4.27
2018-12-16T06:04:59.177Z,-4.25
2018-12-16T06:05:59.158Z,-4.23
2018-12-16T06:06:59.134Z,-4.29
2018-12-16T06:07:59.113Z,-4.29
2018-12-16T06:08:59.094Z,-4.41
2018-12-16T06:09:59.067Z,-4.32
2018-12-16T06:10:59.058Z,-4.33
2018-12-16T06:11:59.024Z,-4.39
2018-12-16T06:12:59.008Z,-4.34
2018-12-16T06:13:58.990Z,-4.33
2018-12-16T06:14:58.714Z,-4.3
2018-12-16T06:15:58.944Z,-4.41
2018-12-16T06:16:58.926Z,-4.34
2018-12-16T06:17:58.901Z,-4.39
2018-12-16T06:18:58.877Z,-4.3
2018-12-16T06:19:58.862Z,-4.34
2018-12-16T06:20:58.586Z,-4.47
2018-12-16T06:21:58.813Z,-4.33
2018-12-16T06:22:58.791Z,-4.32
2018-12-16T06:24:00.577Z,-4.37
2018-12-16T06:24:58.498Z,-4.3
2018-12-16T06:25:58.473Z,-4.33
2018-12-16T06:26:58.705Z,-4.37
2018-12-16T06:27:58.679Z,-4.3
2018-12-16T06:28:58.667Z,-4.27
2018-12-16T06:29:58.140Z,-4.27
2018-12-16T06:30:58.620Z,-4.32
2018-12-16T06:32:00.136Z,-4.32
2018-12-16T06:32:58.591Z,-4.32
2018-12-16T06:33:58.555Z,-4.27
2018-12-16T06:34:58.324Z,-4.3
2018-12-16T06:35:58.512Z,-4.32
2018-12-16T06:36:58.495Z,-4.33
2018-12-16T06:37:58.465Z,-4.26
2018-12-16T06:38:58.453Z,-4.29
2018-12-16T06:39:58.423Z,-4.26
2018-12-16T06:40:58.399Z,-4.18
2018-12-16T06:42:00.192Z,-4.26
2018-12-16T06:42:58.441Z,-4.25
2018-12-16T06:43:58.341Z,-4.29
2018-12-16T06:44:58.319Z,-4.22
2018-12-16T06:45:58.295Z,-4.33
2018-12-16T06:46:58.036Z,-4.36
2018-12-16T06:47:58.246Z,-4.3
2018-12-16T06:48:58.234Z,-4.34
2018-12-16T06:49:58.203Z,-4.27
2018-12-16T06:50:58.184Z,-4.3
2018-12-16T06:51:58.167Z,-4.34
2018-12-16T06:52:58.140Z,-4.23
2018-12-16T06:54:04.723Z,-4.27
2018-12-16T06:54:58.105Z,-4.27
2018-12-16T06:55:58.074Z,-4.25
2018-12-16T06:56:57.812Z,-4.26
2018-12-16T06:57:57.791Z,-4.18
2018-12-16T06:58:57.765Z,-4.12
2018-12-16T06:59:57.994Z,-4.12
2018-12-16T07:00:57.786Z,-4.16
2018-12-16T07:01:57.952Z,-4.08
2018-12-16T07:02:57.681Z,-3.98
2018-12-16T07:03:57.915Z,-3.91
2018-12-16T07:04:57.888Z,-3.94
2018-12-16T07:05:57.861Z,-3.93
2018-12-16T07:06:58.076Z,-3.91
2018-12-16T07:07:57.818Z,-3.94
2018-12-16T07:08:57.551Z,-3.93
2018-12-16T07:09:57.777Z,-3.88
2018-12-16T07:10:57.766Z,-3.9
2018-12-16T07:11:57.592Z,-3.88
2018-12-16T07:12:57.714Z,-3.96
2018-12-16T07:13:57.693Z,-3.88
2018-12-16T07:14:57.675Z,-3.86
2018-12-16T07:15:57.679Z,-3.83
2018-12-16T07:16:57.634Z,-3.82
2018-12-16T07:17:57.624Z,-3.83
2018-12-16T07:18:57.594Z,-3.8
2018-12-16T07:19:57.561Z,-3.76
2018-12-16T07:20:57.572Z,-3.8
2018-12-16T07:21:57.531Z,-3.82
2018-12-16T07:22:57.501Z,-3.79
2018-12-16T07:23:57.504Z,-3.82
2018-12-16T07:24:57.509Z,-3.86
2018-12-16T07:25:57.188Z,-3.82
2018-12-16T07:26:57.432Z,-3.8
2018-12-16T07:27:57.407Z,-3.75
2018-12-16T07:28:57.372Z,-3.76
2018-12-16T07:29:57.395Z,-3.77
2018-12-16T07:30:57.335Z,-3.77
2018-12-16T07:31:57.368Z,-3.71
2018-12-16T07:32:57.297Z,-3.71
2018-12-16T07:33:57.315Z,-3.72
2018-12-16T07:34:57.264Z,-3.69
2018-12-16T07:35:57.281Z,-3.68
2018-12-16T07:36:57.226Z,-3.76
2018-12-16T07:37:57.180Z,-3.6
2018-12-16T07:38:57.164Z,-3.61
2018-12-16T07:39:57.214Z,-3.58
2018-12-16T07:40:57.194Z,-3.56
2018-12-16T07:41:57.102Z,-3.57
2018-12-16T07:42:57.129Z,-3.57
2018-12-16T07:43:57.055Z,-3.47
2018-12-16T07:44:57.073Z,-3.57
2018-12-16T07:45:56.771Z,-3.54
2018-12-16T07:46:56.745Z,-3.57
2018-12-16T07:47:56.973Z,-3.51
2018-12-16T07:48:56.945Z,-3.56
2018-12-16T07:49:56.965Z,-3.57
2018-12-16T07:50:56.909Z,-3.6
2018-12-16T07:51:56.898Z,-3.51
2018-12-16T07:52:57.084Z,-3.56
2018-12-16T07:53:56.889Z,-3.57
2018-12-16T07:54:56.604Z,-3.54
2018-12-16T07:55:56.872Z,-3.47
2018-12-16T07:56:56.551Z,-3.5
2018-12-16T07:57:56.771Z,-3.54
2018-12-16T07:58:56.799Z,-3.42
2018-12-16T07:59:56.773Z,-3.4
2018-12-16T08:00:56.705Z,-3.35
2018-12-16T08:01:56.723Z,-3.29
2018-12-16T08:02:56.743Z,-3.17
2018-12-16T08:03:56.671Z,-3.11
2018-12-16T08:04:56.662Z,-3.01
2018-12-16T08:05:56.691Z,-3.01
2018-12-16T08:06:56.570Z,-2.91
2018-12-16T08:07:56.545Z,-2.96
2018-12-16T08:08:56.523Z,-2.85
2018-12-16T08:09:56.505Z,-2.88
2018-12-16T08:10:56.483Z,-2.86
2018-12-16T08:11:56.461Z,-2.83
2018-12-16T08:12:56.459Z,-2.83
2018-12-16T08:13:56.425Z,-2.88
2018-12-16T08:14:56.406Z,-2.88
2018-12-16T08:15:56.375Z,-2.88
2018-12-16T08:16:56.354Z,-2.83
2018-12-16T08:17:56.337Z,-2.83
2018-12-16T08:18:56.324Z,-2.9
2018-12-16T08:19:56.296Z,-2.83
2018-12-16T08:20:56.274Z,-2.85
2018-12-16T08:21:56.256Z,-2.83
2018-12-16T08:22:56.233Z,-2.82
2018-12-16T08:23:56.213Z,-2.88
2018-12-16T08:24:56.192Z,-2.82
2018-12-16T08:25:56.167Z,-2.82
2018-12-16T08:26:56.149Z,-2.78
2018-12-16T08:27:56.133Z,-2.79
2018-12-16T08:28:56.110Z,-2.76
2018-12-16T08:29:56.094Z,-2.65
2018-12-16T08:30:55.821Z,-2.68
2018-12-16T08:31:56.047Z,-2.67
2018-12-16T08:32:55.923Z,-2.64
2018-12-16T08:33:56.003Z,-2.64
2018-12-16T08:34:55.992Z,-2.57
2018-12-16T08:35:55.969Z,-2.6
2018-12-16T08:36:55.691Z,-2.62
2018-12-16T08:37:55.923Z,-2.61
2018-12-16T08:38:55.899Z,-2.6
2018-12-16T08:39:55.640Z,-2.68
2018-12-16T08:40:55.858Z,-2.67
2018-12-16T08:41:55.908Z,-2.7
2018-12-16T08:42:55.822Z,-2.7
2018-12-16T08:43:55.798Z,-2.6
2018-12-16T08:44:55.779Z,-2.65
2018-12-16T08:45:55.758Z,-2.6
2018-12-16T08:46:55.739Z,-2.65
2018-12-16T08:47:55.724Z,-2.62
2018-12-16T08:48:55.694Z,-2.58
2018-12-16T08:49:55.760Z,-2.65
2018-12-16T08:50:55.654Z,-2.57
2018-12-16T08:51:55.632Z,-2.72
2018-12-16T08:52:55.613Z,-2.68
2018-12-16T08:53:55.592Z,-2.75
2018-12-16T08:54:55.568Z,-2.72
2018-12-16T08:55:55.549Z,-2.76
2018-12-16T08:56:55.529Z,-2.79
2018-12-16T08:57:55.515Z,-2.81
2018-12-16T08:58:55.531Z,-2.85
2018-12-16T08:59:55.462Z,-2.91
2018-12-16T09:00:55.448Z,-2.81
2018-12-16T09:01:55.181Z,-2.82
2018-12-16T09:02:55.404Z,-2.81
2018-12-16T09:03:55.384Z,-2.73
2018-12-16T09:04:55.365Z,-2.73
2018-12-16T09:05:55.347Z,-2.6
2018-12-16T09:06:55.323Z,-2.58
2018-12-16T09:07:55.304Z,-2.43
2018-12-16T09:08:55.283Z,-2.4
2018-12-16T09:09:55.257Z,-2.44
2018-12-16T09:10:55.298Z,-2.4
2018-12-16T09:11:54.982Z,-2.23
2018-12-16T09:12:55.199Z,-2.21
2018-12-16T09:13:55.179Z,-2.18
2018-12-16T09:14:55.154Z,-2.21
2018-12-16T09:15:55.141Z,-2.07
2018-12-16T09:16:56.161Z,-2.02
2018-12-16T09:17:55.096Z,-1.96
2018-12-16T09:18:55.075Z,-2.05
2018-12-16T09:19:54.810Z,-1.96
2018-12-16T09:20:54.539Z,-1.91
2018-12-16T09:21:55.020Z,-2
2018-12-16T09:22:54.997Z,-1.99
2018-12-16T09:23:54.729Z,-1.92
2018-12-16T09:24:54.960Z,-1.89
2018-12-16T09:25:54.944Z,-1.85
2018-12-16T09:26:54.914Z,-1.82
2018-12-16T09:27:54.892Z,-1.82
2018-12-16T09:28:54.875Z,-1.68
2018-12-16T09:29:54.856Z,-1.71
2018-12-16T09:31:00.525Z,-1.66
2018-12-16T09:31:54.825Z,-1.6
2018-12-16T09:32:54.799Z,-1.66
2018-12-16T09:33:54.775Z,-1.64
2018-12-16T09:34:54.755Z,-1.74
2018-12-16T09:35:54.739Z,-1.81
2018-12-16T09:36:54.716Z,-1.78
2018-12-16T09:37:54.693Z,-1.73
2018-12-16T09:38:54.676Z,-1.67
2018-12-16T09:39:54.658Z,-1.71
2018-12-16T09:40:54.633Z,-1.66
2018-12-16T09:41:54.614Z,-1.6
2018-12-16T09:42:54.596Z,-1.48
2018-12-16T09:43:54.572Z,-1.56
2018-12-16T09:44:54.059Z,-1.5
2018-12-16T09:45:54.285Z,-1.45
2018-12-16T09:46:54.015Z,-1.34
2018-12-16T09:47:54.572Z,-1.31
2018-12-16T09:48:54.540Z,-1.35
2018-12-16T09:49:54.458Z,-1.34
2018-12-16T09:50:54.433Z,-1.24
2018-12-16T09:51:54.529Z,-1.24
2018-12-16T09:52:54.394Z,-1.24
2018-12-16T09:53:54.423Z,-1.24
2018-12-16T09:54:54.352Z,-1.11
2018-12-16T09:55:54.337Z,-1.22
2018-12-16T09:56:54.312Z,-1.21
2018-12-16T09:57:53.804Z,-1.09
2018-12-16T09:58:54.274Z,-1.22
2018-12-16T09:59:54.253Z,-1.22
2018-12-16T10:00:54.233Z,-1.11
2018-12-16T10:01:54.216Z,-1.19
2018-12-16T10:02:54.195Z,-1.21
2018-12-16T10:03:54.172Z,-1.24
2018-12-16T10:04:53.908Z,-1.25
2018-12-16T10:05:54.143Z,-1.24
2018-12-16T10:06:54.120Z,-1.37
2018-12-16T10:07:54.104Z,-1.38
2018-12-16T10:08:54.075Z,-1.28
2018-12-16T10:09:54.060Z,-1.19
2018-12-16T10:10:54.040Z,-1.21
2018-12-16T10:11:54.017Z,-1.17
2018-12-16T10:12:53.999Z,-1.06
2018-12-16T10:13:53.728Z,-1.1
2018-12-16T10:14:53.958Z,-0.89
2018-12-16T10:15:53.940Z,-0.87
2018-12-16T10:16:53.923Z,-0.73
2018-12-16T10:17:53.654Z,-0.69
2018-12-16T10:18:53.883Z,-0.64
2018-12-16T10:19:53.868Z,-0.52
2018-12-16T10:20:53.840Z,-0.59
2018-12-16T10:21:53.823Z,-0.59
2018-12-16T10:22:53.802Z,-0.55
2018-12-16T10:23:53.789Z,-0.58
2018-12-16T10:24:56.416Z,-0.69
2018-12-16T10:25:53.744Z,-0.62
2018-12-16T10:26:53.725Z,-0.61
2018-12-16T10:27:53.711Z,-0.67
2018-12-16T10:28:53.693Z,-0.66
2018-12-16T10:29:53.423Z,-0.76
2018-12-16T10:30:53.648Z,-0.72
2018-12-16T10:31:53.638Z,-0.79
2018-12-16T10:32:53.613Z,-0.76
2018-12-16T10:33:53.592Z,-0.8
2018-12-16T10:34:53.572Z,-0.84
2018-12-16T10:35:53.551Z,-0.84
2018-12-16T10:36:53.532Z,-0.91
2018-12-16T10:37:53.523Z,-0.91
2018-12-16T10:38:53.495Z,-0.87
2018-12-16T10:39:53.475Z,-0.82
2018-12-16T10:40:53.453Z,-0.93
2018-12-16T10:41:53.187Z,-0.91
2018-12-16T10:42:53.415Z,-0.98
2018-12-16T10:43:53.396Z,-0.99
2018-12-16T10:44:53.377Z,-0.91
2018-12-16T10:45:53.114Z,-0.99
2018-12-16T10:46:53.418Z,-0.99
2018-12-16T10:47:53.324Z,-1.01
2018-12-16T10:48:53.354Z,-1.04
2018-12-16T10:49:53.080Z,-1.04
2018-12-16T10:50:53.264Z,-1.01
2018-12-16T10:51:53.244Z,-0.95
2018-12-16T10:52:53.223Z,-0.92
2018-12-16T10:53:53.205Z,-0.95
2018-12-16T10:54:58.284Z,-0.89
2018-12-16T10:55:53.164Z,-0.95
2018-12-16T10:56:53.144Z,-0.87
2018-12-16T10:57:53.124Z,-0.84
2018-12-16T10:58:53.106Z,-0.92
2018-12-16T10:59:53.084Z,-0.95
2018-12-16T11:00:53.066Z,-0.98
2018-12-16T11:01:52.799Z,-0.99
2018-12-16T11:02:53.025Z,-1.01
2018-12-16T11:03:53.007Z,-0.96
2018-12-16T11:04:52.992Z,-0.92
2018-12-16T11:05:52.975Z,-1.01
2018-12-16T11:06:52.703Z,-0.98
2018-12-16T11:07:52.931Z,-1.04
2018-12-16T11:08:52.916Z,-0.98
2018-12-16T11:09:52.942Z,-1.01
2018-12-16T11:10:52.873Z,-1.01
2018-12-16T11:11:52.857Z,-1.04
2018-12-16T11:12:52.586Z,-1.04
2018-12-16T11:13:52.816Z,-1.03
2018-12-16T11:14:52.880Z,-1.09
2018-12-16T11:15:52.781Z,-1.14
2018-12-16T11:16:52.770Z,-1.13
2018-12-16T11:17:52.742Z,-1.22
2018-12-16T11:18:52.716Z,-1.13
2018-12-16T11:19:52.696Z,-1.17
2018-12-16T11:20:52.678Z,-1.07
2018-12-16T11:21:52.660Z,-0.92
2018-12-16T11:22:52.638Z,-0.99
2018-12-16T11:23:58.751Z,-0.98
2018-12-16T11:24:52.603Z,-0.89
2018-12-16T11:25:52.586Z,-0.82
2018-12-16T11:26:52.563Z,-0.98
2018-12-16T11:27:52.550Z,-0.93
2018-12-16T11:28:52.523Z,-0.92
2018-12-16T11:29:52.502Z,-1.01
2018-12-16T11:30:52.234Z,-0.95
2018-12-16T11:31:52.467Z,-0.98
2018-12-16T11:32:52.447Z,-0.99
2018-12-16T11:33:52.423Z,-1.11
2018-12-16T11:34:52.213Z,-1.1
2018-12-16T11:35:52.392Z,-1.11
2018-12-16T11:36:52.122Z,-1.14
2018-12-16T11:37:52.431Z,-1.16
2018-12-16T11:38:52.328Z,-1.14
2018-12-16T11:39:53.493Z,-1.16
2018-12-16T11:40:52.293Z,-1.14
2018-12-16T11:41:52.024Z,-1.11
2018-12-16T11:42:52.249Z,-1.24
2018-12-16T11:43:52.231Z,-1.22
2018-12-16T11:44:51.964Z,-1.27
2018-12-16T11:45:52.193Z,-1.09
2018-12-16T11:46:52.175Z,-1.13
2018-12-16T11:47:52.152Z,-1.06
2018-12-16T11:48:51.887Z,-1.07
2018-12-16T11:49:51.867Z,-1.09
2018-12-16T11:50:52.095Z,-1.11
2018-12-16T11:51:52.076Z,-1.09
2018-12-16T11:52:52.053Z,-0.95
2018-12-16T11:53:52.035Z,-0.95
2018-12-16T11:54:52.026Z,-0.98
2018-12-16T11:55:51.994Z,-1.03
2018-12-16T11:56:51.729Z,-1.06
2018-12-16T11:57:51.712Z,-1.11
2018-12-16T11:58:51.938Z,-1.11
2018-12-16T11:59:51.672Z,-1.11
2018-12-16T12:00:51.899Z,-1.01
2018-12-16T12:01:51.883Z,-1.03
2018-12-16T12:02:51.858Z,-0.91
2018-12-16T12:03:51.842Z,-0.98
2018-12-16T12:04:51.820Z,-0.96
2018-12-16T12:05:51.800Z,-0.95
2018-12-16T12:06:51.783Z,-1.01
2018-12-16T12:07:51.821Z,-0.98
2018-12-16T12:08:51.742Z,-1.09
2018-12-16T12:09:51.724Z,-1.14
2018-12-16T12:10:51.704Z,-1.13
2018-12-16T12:11:51.435Z,-1.24
2018-12-16T12:12:51.424Z,-1.22
2018-12-16T12:13:51.659Z,-1.13
2018-12-16T12:14:51.626Z,-1.11
2018-12-16T12:15:51.604Z,-1.11
2018-12-16T12:16:51.585Z,-1.07
2018-12-16T12:17:51.572Z,-1.13
2018-12-16T12:18:51.301Z,-1.13
2018-12-16T12:19:51.532Z,-1.17
2018-12-16T12:20:51.511Z,-1.16
2018-12-16T12:21:51.496Z,-1.21
2018-12-16T12:22:51.470Z,-1.09
2018-12-16T12:23:51.467Z,-1.09
2018-12-16T12:24:51.469Z,-1.16
2018-12-16T12:25:51.413Z,-1.1
2018-12-16T12:26:51.393Z,-1.06
2018-12-16T12:27:51.370Z,-0.98
2018-12-16T12:28:51.101Z,-0.95
2018-12-16T12:29:51.330Z,-0.99
2018-12-16T12:30:51.360Z,-0.96
2018-12-16T12:31:51.299Z,-1.03
2018-12-16T12:32:53.994Z,-0.96
2018-12-16T12:33:51.254Z,-0.95
2018-12-16T12:34:50.983Z,-0.99
2018-12-16T12:35:50.965Z,-0.93
2018-12-16T12:36:51.192Z,-0.99
2018-12-16T12:37:51.174Z,-0.95
2018-12-16T12:38:51.157Z,-0.99
2018-12-16T12:39:51.140Z,-0.87
2018-12-16T12:40:51.115Z,-0.87
2018-12-16T12:41:51.095Z,-0.82
2018-12-16T12:42:50.582Z,-0.82
2018-12-16T12:43:51.059Z,-0.91
2018-12-16T12:44:51.037Z,-0.87
2018-12-16T12:45:51.069Z,-0.85
2018-12-16T12:46:50.753Z,-0.85
2018-12-16T12:47:50.986Z,-0.85
2018-12-16T12:48:50.717Z,-0.92
2018-12-16T12:49:50.939Z,-0.91
2018-12-16T12:50:50.922Z,-0.82
2018-12-16T12:51:50.902Z,-0.85
2018-12-16T12:52:50.637Z,-0.96
2018-12-16T12:53:50.619Z,-0.91
2018-12-16T12:54:50.850Z,-0.82